createdAt,value
2023-05-05T00:00:00.466Z,77.22
2023-05-05T00:02:29.185Z,77.12
2023-05-05T00:04:57.367Z,77.38
2023-05-05T00:07:25.497Z,77.48
2023-05-05T00:09:56.556Z,77.58
2023-05-05T00:12:24.767Z,77.76
2023-05-05T00:14:54.797Z,77.77
2023-05-05T00:17:23.192Z,77.90
2023-05-05T00:19:51.391Z,78.05
2023-05-05T00:22:19.785Z,77.94
2023-05-05T00:24:47.920Z,78.11
2023-05-05T00:27:15.959Z,78.09
2023-05-05T00:29:44.293Z,78.41
2023-05-05T00:32:12.401Z,78.45
2023-05-05T00:34:40.553Z,78.39
2023-05-05T00:37:08.806Z,78.63
2023-05-05T00:39:36.826Z,78.51
2023-05-05T00:42:04.769Z,78.55
2023-05-05T00:44:41.913Z,78.49
2023-05-05T00:47:14.370Z,78.82
2023-05-05T00:49:43.120Z,78.95
2023-05-05T00:52:13.366Z,78.98
2023-05-05T00:54:41.718Z,79.28
2023-05-05T00:57:10.910Z,79.15
2023-05-05T00:59:39.508Z,79.71
2023-05-05T01:02:07.908Z,79.63
2023-05-05T01:04:36.670Z,79.59
2023-05-05T01:07:16.109Z,79.61
2023-05-05T01:10:18.122Z,79.59
2023-05-05T01:13:05.615Z,79.83
2023-05-05T01:15:55.786Z,79.77
2023-05-05T01:18:44.267Z,80.17
2023-05-05T01:21:33.664Z,80.26
2023-05-05T01:24:18.466Z,80.40
2023-05-05T01:27:07.213Z,80.24
2023-05-05T01:29:36.003Z,80.52
2023-05-05T01:32:16.474Z,80.70
2023-05-05T01:35:04.404Z,81.02
2023-05-05T01:37:46.396Z,81.00
2023-05-05T01:40:20.054Z,81.11
2023-05-05T01:42:50.989Z,81.15
2023-05-05T01:45:22.057Z,81.30
2023-05-05T01:47:52.301Z,81.16
2023-05-05T01:50:22.374Z,81.02
2023-05-05T01:52:51.721Z,80.93
2023-05-05T01:55:22.397Z,80.84
2023-05-05T01:57:51.684Z,80.94
2023-05-05T02:00:34.298Z,80.74
2023-05-05T02:03:05.050Z,80.52
2023-05-05T02:05:34.410Z,80.00
2023-05-05T02:08:04.923Z,79.11
2023-05-05T02:10:33.815Z,78.50
2023-05-05T02:13:03.252Z,78.08
2023-05-05T02:15:33.761Z,77.63
2023-05-05T02:18:05.724Z,77.46
2023-05-05T02:20:36.089Z,77.14
2023-05-05T02:23:05.976Z,77.20
2023-05-05T02:25:45.698Z,77.08
2023-05-05T02:28:26.988Z,77.26
2023-05-05T02:31:01.014Z,77.36
2023-05-05T02:33:35.228Z,77.43
2023-05-05T02:36:23.606Z,77.48
2023-05-05T02:39:02.396Z,77.74
2023-05-05T02:41:38.392Z,77.80
2023-05-05T02:44:13.995Z,78.00
2023-05-05T02:46:43.966Z,78.00
2023-05-05T02:49:12.190Z,78.16
2023-05-05T02:51:41.496Z,78.21
2023-05-05T02:54:18.152Z,78.56
2023-05-05T02:56:51.307Z,78.75
2023-05-05T02:59:31.604Z,78.94
2023-05-05T03:02:13.419Z,79.13
2023-05-05T03:04:48.728Z,79.32
2023-05-05T03:07:27.764Z,79.39
2023-05-05T03:10:06.429Z,79.44
2023-05-05T03:12:46.798Z,79.90
2023-05-05T03:15:25.141Z,80.25
2023-05-05T03:17:55.904Z,80.68
2023-05-05T03:20:25.057Z,80.83
2023-05-05T03:22:55.081Z,80.92
2023-05-05T03:25:23.251Z,80.88
2023-05-05T03:27:51.460Z,81.02
2023-05-05T03:30:22.422Z,81.07
2023-05-05T03:32:52.897Z,81.37
2023-05-05T03:35:22.089Z,81.38
2023-05-05T03:37:50.630Z,81.37
2023-05-05T03:40:20.181Z,81.49
2023-05-05T03:42:49.199Z,81.61
2023-05-05T03:45:18.191Z,81.71
2023-05-05T03:47:46.302Z,81.85
2023-05-05T03:50:14.865Z,81.86
2023-05-05T03:52:43.144Z,81.92
2023-05-05T03:55:11.726Z,81.80
2023-05-05T03:57:40.008Z,81.85
2023-05-05T04:00:11.944Z,81.75
2023-05-05T04:02:45.572Z,81.97
2023-05-05T04:05:19.910Z,82.12
2023-05-05T04:07:49.823Z,82.12
2023-05-05T04:10:17.980Z,82.33
2023-05-05T04:12:46.637Z,82.73
2023-05-05T04:15:14.836Z,82.58
2023-05-05T04:17:43.243Z,82.85
2023-05-05T04:20:11.598Z,83.22
2023-05-05T04:22:40.882Z,83.67
2023-05-05T04:25:09.591Z,83.74
2023-05-05T04:27:37.902Z,83.84
2023-05-05T04:30:12.802Z,84.14
2023-05-05T04:32:42.296Z,83.89
2023-05-05T04:35:11.490Z,83.80
2023-05-05T04:37:40.175Z,83.63
2023-05-05T04:40:10.203Z,83.44
2023-05-05T04:42:40.108Z,83.24
2023-05-05T04:45:11.455Z,83.27
2023-05-05T04:47:42.881Z,82.74
2023-05-05T04:50:11.797Z,79.57
2023-05-05T04:52:41.292Z,79.28
2023-05-05T04:55:10.790Z,80.00
2023-05-05T04:57:39.789Z,79.95
2023-05-05T05:00:09.916Z,76.78
2023-05-05T05:02:39.087Z,74.43
2023-05-05T05:05:08.412Z,73.02
2023-05-05T05:07:36.829Z,70.98
2023-05-05T05:10:06.315Z,70.29
2023-05-05T05:12:35.127Z,69.22
2023-05-05T05:15:03.617Z,67.57
2023-05-05T05:17:32.828Z,68.03
2023-05-05T05:20:05.089Z,67.83
2023-05-05T05:22:38.520Z,71.70
2023-05-05T05:25:09.871Z,73.34
2023-05-05T05:27:38.122Z,70.65
2023-05-05T05:30:07.137Z,68.52
2023-05-05T05:32:35.436Z,67.48
2023-05-05T05:35:04.077Z,66.99
2023-05-05T05:37:32.379Z,66.08
2023-05-05T05:40:05.663Z,66.05
2023-05-05T05:42:35.844Z,66.59
2023-05-05T05:45:05.733Z,66.33
2023-05-05T05:47:34.314Z,65.28
2023-05-05T05:50:04.954Z,64.35
2023-05-05T05:52:36.297Z,64.93
2023-05-05T05:55:15.238Z,65.17
2023-05-05T05:57:44.329Z,64.95
2023-05-05T06:00:17.002Z,64.29
2023-05-05T06:02:54.631Z,63.97
2023-05-05T06:05:27.444Z,63.97
2023-05-05T06:08:03.295Z,64.33
2023-05-05T06:10:36.804Z,63.41
2023-05-05T06:13:09.991Z,62.19
2023-05-05T06:15:44.139Z,61.71
2023-05-05T06:18:15.999Z,61.07
2023-05-05T06:20:44.495Z,60.78
2023-05-05T06:23:14.595Z,60.44
2023-05-05T06:25:48.171Z,60.44
2023-05-05T06:28:17.045Z,60.40
2023-05-05T06:30:46.091Z,60.20
2023-05-05T06:33:14.020Z,60.59
2023-05-05T06:35:41.914Z,60.68
2023-05-05T06:38:10.191Z,61.32
2023-05-05T06:40:38.580Z,60.11
2023-05-05T06:43:06.549Z,61.66
2023-05-05T06:45:40.049Z,59.31
2023-05-05T06:48:08.635Z,59.19
2023-05-05T06:50:36.490Z,60.00
2023-05-05T06:53:04.583Z,59.32
2023-05-05T06:55:32.654Z,59.59
2023-05-05T06:58:00.916Z,58.80
2023-05-05T07:00:29.035Z,58.81
2023-05-05T07:02:57.098Z,59.97
2023-05-05T07:05:25.049Z,59.49
2023-05-05T07:07:57.089Z,57.75
2023-05-05T07:10:26.318Z,56.99
2023-05-05T07:12:55.285Z,57.19
2023-05-05T07:15:27.516Z,57.88
2023-05-05T07:17:57.494Z,56.73
2023-05-05T07:20:25.948Z,56.43
2023-05-05T07:22:53.816Z,55.73
2023-05-05T07:25:21.985Z,54.52
2023-05-05T07:27:50.166Z,52.93
2023-05-05T07:30:19.068Z,52.82
2023-05-05T07:32:47.717Z,53.60
2023-05-05T07:35:15.883Z,52.99
2023-05-05T07:37:45.650Z,52.22
2023-05-05T07:40:13.864Z,52.32
2023-05-05T07:42:42.314Z,52.22
2023-05-05T07:45:11.119Z,52.08
2023-05-05T07:47:40.627Z,52.22
2023-05-05T07:50:09.459Z,51.86
2023-05-05T07:52:48.429Z,52.16
2023-05-05T07:55:21.858Z,51.41
2023-05-05T07:57:50.015Z,51.44
2023-05-05T08:00:19.711Z,50.90
2023-05-05T08:02:48.752Z,50.00
2023-05-05T08:05:17.023Z,51.64
2023-05-05T08:07:45.200Z,51.95
2023-05-05T08:10:13.616Z,51.15
2023-05-05T08:12:42.360Z,52.24
2023-05-05T08:15:10.856Z,50.92
2023-05-05T08:17:46.334Z,52.88
2023-05-05T08:20:15.000Z,51.74
2023-05-05T08:22:43.155Z,50.94
2023-05-05T08:25:13.043Z,51.41
2023-05-05T08:27:42.645Z,52.21
2023-05-05T08:30:14.412Z,52.83
2023-05-05T08:32:42.520Z,53.32
2023-05-05T08:35:11.105Z,52.83
2023-05-05T08:37:39.573Z,53.69
2023-05-05T08:40:08.605Z,56.05
2023-05-05T08:42:38.465Z,56.69
2023-05-05T08:45:11.989Z,55.95
2023-05-05T08:47:43.735Z,56.24
2023-05-05T08:50:17.391Z,57.39
2023-05-05T08:52:51.430Z,58.00
2023-05-05T08:55:26.713Z,58.86
2023-05-05T08:58:01.177Z,57.65
2023-05-05T09:00:29.750Z,57.02
2023-05-05T09:02:59.242Z,56.45
2023-05-05T09:05:28.172Z,55.86
2023-05-05T09:07:58.775Z,56.21
2023-05-05T09:10:29.639Z,56.57
2023-05-05T09:13:00.286Z,55.89
2023-05-05T09:15:28.773Z,58.38
2023-05-05T09:17:58.486Z,59.13
2023-05-05T09:20:35.688Z,57.84
2023-05-05T09:23:18.133Z,58.60
2023-05-05T09:26:02.028Z,58.17
2023-05-05T09:28:30.276Z,57.66
2023-05-05T09:31:13.775Z,57.47
2023-05-05T09:33:41.904Z,57.53
2023-05-05T09:36:12.336Z,57.14
2023-05-05T09:38:42.862Z,58.29
2023-05-05T09:41:13.477Z,59.12
2023-05-05T09:43:55.835Z,58.84
2023-05-05T09:46:24.257Z,58.03
2023-05-05T09:48:52.547Z,57.85
2023-05-05T09:51:29.911Z,58.17
2023-05-05T09:53:58.338Z,57.53
2023-05-05T09:56:39.599Z,57.76
2023-05-05T09:59:12.077Z,56.88
2023-05-05T10:01:43.645Z,57.26
2023-05-05T10:04:31.906Z,58.12
2023-05-05T10:07:00.159Z,58.89
2023-05-05T10:12:11.079Z,59.87
2023-05-05T10:14:45.649Z,58.87
2023-05-05T10:17:15.580Z,59.17
2023-05-05T10:19:44.471Z,59.35
2023-05-05T10:22:13.126Z,59.26
2023-05-05T10:24:52.387Z,58.84
2023-05-05T10:27:27.940Z,58.74
2023-05-05T10:30:08.311Z,60.75
2023-05-05T10:32:57.344Z,62.23
2023-05-05T10:35:31.023Z,66.40
2023-05-05T10:38:03.381Z,67.40
2023-05-05T10:40:35.620Z,69.04
2023-05-05T10:43:04.569Z,67.76
2023-05-05T10:45:35.338Z,68.01
2023-05-05T10:48:08.973Z,67.09
2023-05-05T10:50:45.451Z,66.71
2023-05-05T10:53:26.143Z,63.69
2023-05-05T10:56:20.664Z,64.02
2023-05-05T10:58:59.665Z,63.98
2023-05-05T11:01:37.161Z,61.56
2023-05-05T11:04:24.613Z,62.95
2023-05-05T11:07:14.624Z,61.04
2023-05-05T11:10:01.589Z,61.40
2023-05-05T11:12:31.572Z,58.75
2023-05-05T11:15:38.240Z,58.87
2023-05-05T11:18:08.258Z,58.01
2023-05-05T11:20:37.049Z,61.09
2023-05-05T11:23:05.466Z,60.62
2023-05-05T11:25:36.932Z,61.70
2023-05-05T11:28:09.415Z,58.43
2023-05-05T11:30:58.506Z,62.86
2023-05-05T11:33:37.516Z,66.71
2023-05-05T11:36:09.895Z,68.53
2023-05-05T11:39:15.094Z,69.97
2023-05-05T11:42:10.761Z,72.09
2023-05-05T11:44:39.471Z,72.60
2023-05-05T11:47:07.473Z,74.21
2023-05-05T11:49:42.441Z,74.75
2023-05-05T11:52:21.670Z,76.72
2023-05-05T11:54:50.488Z,77.93
2023-05-05T11:57:29.725Z,79.35
2023-05-05T11:59:59.746Z,80.92
2023-05-05T12:02:29.893Z,82.79
2023-05-05T12:04:59.693Z,84.65
2023-05-05T12:07:30.989Z,85.52
2023-05-05T12:09:59.960Z,85.94
2023-05-05T12:12:39.360Z,86.41
2023-05-05T12:15:09.783Z,87.77
2023-05-05T12:17:45.052Z,88.01
2023-05-05T12:20:13.854Z,88.73
2023-05-05T12:22:42.478Z,88.88
2023-05-05T12:25:10.774Z,89.12
2023-05-05T12:27:39.182Z,89.72
2023-05-05T12:30:17.993Z,90.30
2023-05-05T12:32:46.658Z,90.36
2023-05-05T12:35:15.875Z,91.28
2023-05-05T12:37:44.277Z,90.57
2023-05-05T12:40:47.634Z,90.76
2023-05-05T12:43:46.152Z,91.67
2023-05-05T12:46:17.675Z,92.34
2023-05-05T12:48:48.199Z,91.85
2023-05-05T12:51:17.791Z,93.18
2023-05-05T12:53:46.998Z,93.01
2023-05-05T12:56:43.074Z,93.02
2023-05-05T12:59:30.717Z,92.86
2023-05-05T13:02:02.941Z,92.41
2023-05-05T13:04:31.236Z,93.08
2023-05-05T13:07:10.715Z,92.19
2023-05-05T13:09:38.875Z,92.49
2023-05-05T13:12:11.142Z,93.05
2023-05-05T13:14:40.008Z,91.99
2023-05-05T13:17:10.201Z,91.66
2023-05-05T13:19:42.655Z,91.62
2023-05-05T13:22:10.740Z,92.66
2023-05-05T13:24:50.793Z,91.74
2023-05-05T13:27:33.465Z,90.79
2023-05-05T13:30:04.665Z,90.42
2023-05-05T13:32:33.372Z,91.09
2023-05-05T13:35:05.001Z,88.92
2023-05-05T13:37:33.626Z,89.71
2023-05-05T13:40:01.894Z,89.97
2023-05-05T13:42:30.435Z,90.93
2023-05-05T13:44:58.785Z,91.71
2023-05-05T13:47:26.927Z,91.50
2023-05-05T13:49:56.223Z,91.10
2023-05-05T13:52:24.370Z,91.41
2023-05-05T13:54:52.440Z,92.38
2023-05-05T13:57:20.535Z,91.14
2023-05-05T13:59:48.430Z,92.35
2023-05-05T14:02:16.652Z,92.02
2023-05-05T14:04:44.796Z,92.05
2023-05-05T14:07:12.720Z,93.04
2023-05-05T14:09:40.952Z,92.13
2023-05-05T14:12:09.170Z,91.97
2023-05-05T14:14:37.726Z,91.92
2023-05-05T14:17:06.121Z,92.76
2023-05-05T14:19:34.213Z,90.70
2023-05-05T14:22:02.886Z,90.26
2023-05-05T14:24:31.127Z,89.47
2023-05-05T14:27:01.170Z,89.74
2023-05-05T14:29:32.310Z,90.02
2023-05-05T14:32:00.711Z,89.85
2023-05-05T14:34:29.045Z,89.45
2023-05-05T14:36:57.430Z,90.16
2023-05-05T14:39:28.178Z,90.40
2023-05-05T14:42:04.890Z,89.56
2023-05-05T14:44:33.272Z,89.08
2023-05-05T14:47:01.431Z,89.55
2023-05-05T14:49:32.391Z,89.06
2023-05-05T14:52:00.615Z,87.20
2023-05-05T14:54:29.174Z,86.60
2023-05-05T14:56:58.589Z,89.16
2023-05-05T14:59:27.555Z,87.82
2023-05-05T15:01:57.262Z,87.40
2023-05-05T15:04:25.407Z,86.89
2023-05-05T15:06:54.018Z,85.42
2023-05-05T15:09:22.048Z,82.31
2023-05-05T15:14:38.380Z,83.30
2023-05-05T15:17:08.704Z,81.23
2023-05-05T15:19:36.816Z,78.80
2023-05-05T15:22:07.755Z,82.14
2023-05-05T15:24:35.911Z,82.53
2023-05-05T15:27:04.432Z,78.75
2023-05-05T15:29:32.545Z,77.73
2023-05-05T15:32:00.788Z,81.50
2023-05-05T15:34:34.532Z,84.02
2023-05-05T15:37:02.686Z,81.17
2023-05-05T15:39:31.112Z,81.98
2023-05-05T15:45:06.368Z,83.88
2023-05-05T15:47:34.556Z,82.63
2023-05-05T15:50:03.254Z,81.40
2023-05-05T15:52:33.874Z,79.57
2023-05-05T15:55:02.244Z,78.25
2023-05-05T15:57:31.550Z,80.07
2023-05-05T16:00:03.413Z,81.78
2023-05-05T16:02:35.908Z,81.50
2023-05-05T16:05:10.527Z,81.20
2023-05-05T16:07:39.323Z,80.61
2023-05-05T16:10:08.421Z,79.90
2023-05-05T16:12:36.624Z,80.41
2023-05-05T16:15:05.141Z,82.37
2023-05-05T16:17:34.716Z,81.50
2023-05-05T16:20:02.885Z,82.04
2023-05-05T16:22:30.779Z,81.85
2023-05-05T16:24:58.848Z,81.95
2023-05-05T16:27:27.203Z,81.74
2023-05-05T16:29:55.930Z,80.48
2023-05-05T16:32:25.365Z,79.76
2023-05-05T16:34:53.415Z,79.55
2023-05-05T16:37:21.606Z,80.69
2023-05-05T16:39:51.630Z,80.43
2023-05-05T16:42:20.287Z,79.40
2023-05-05T16:44:54.025Z,79.60
2023-05-05T16:47:22.235Z,80.11
2023-05-05T16:49:55.275Z,81.05
2023-05-05T16:52:23.352Z,79.85
2023-05-05T16:54:55.759Z,80.64
2023-05-05T16:57:23.979Z,81.04
2023-05-05T16:59:54.720Z,79.85
2023-05-05T17:02:23.317Z,79.45
2023-05-05T17:04:54.104Z,79.28
2023-05-05T17:07:27.676Z,79.65
2023-05-05T17:09:56.162Z,78.83
2023-05-05T17:12:42.880Z,78.77
2023-05-05T17:15:14.042Z,78.61
2023-05-05T17:17:45.650Z,79.00
2023-05-05T17:20:14.632Z,78.23
2023-05-05T17:22:44.106Z,77.58
2023-05-05T17:25:13.198Z,78.03
2023-05-05T17:27:45.946Z,78.18
2023-05-05T17:30:20.707Z,79.09
2023-05-05T17:32:49.859Z,79.15
2023-05-05T17:35:19.129Z,79.44
2023-05-05T17:37:54.684Z,79.07
2023-05-05T17:40:24.464Z,78.45
2023-05-05T17:42:52.905Z,78.85
2023-05-05T17:45:21.946Z,79.26
2023-05-05T17:47:54.933Z,78.99
2023-05-05T17:50:23.799Z,79.42
2023-05-05T17:52:58.966Z,79.71
2023-05-05T17:55:31.004Z,81.05
2023-05-05T17:58:00.450Z,80.80
2023-05-05T18:00:29.446Z,81.23
2023-05-05T18:02:58.141Z,81.06
2023-05-05T18:05:26.666Z,79.48
2023-05-05T18:07:56.760Z,79.68
2023-05-05T18:10:31.551Z,80.18
2023-05-05T18:13:03.694Z,80.79
2023-05-05T18:15:50.377Z,80.46
2023-05-05T18:18:21.153Z,80.47
2023-05-05T18:20:50.239Z,81.09
2023-05-05T18:23:19.082Z,82.01
2023-05-05T18:25:47.927Z,81.44
2023-05-05T18:28:16.743Z,81.68
2023-05-05T18:30:48.251Z,81.96
2023-05-05T18:33:17.358Z,82.15
2023-05-05T18:35:46.356Z,82.68
2023-05-05T18:38:14.823Z,82.71
2023-05-05T18:40:43.137Z,82.72
2023-05-05T18:43:12.072Z,82.94
2023-05-05T18:45:41.141Z,82.99
2023-05-05T18:48:10.384Z,82.88
2023-05-05T18:50:39.075Z,83.05
2023-05-05T18:53:07.574Z,82.56
2023-05-05T18:55:35.947Z,82.63
2023-05-05T18:58:07.407Z,82.79
2023-05-05T19:00:38.655Z,83.15
2023-05-05T19:03:07.868Z,83.40
2023-05-05T19:05:36.985Z,84.00
2023-05-05T19:08:10.589Z,84.59
2023-05-05T19:10:39.125Z,85.24
2023-05-05T19:13:11.793Z,85.89
2023-05-05T19:15:44.802Z,85.77
2023-05-05T19:18:16.021Z,86.31
2023-05-05T19:20:44.612Z,86.64
2023-05-05T19:23:13.321Z,87.01
2023-05-05T19:25:41.883Z,87.73
2023-05-05T19:28:11.618Z,88.02
2023-05-05T19:30:40.500Z,88.47
2023-05-05T19:33:13.964Z,88.69
2023-05-05T19:35:44.947Z,89.10
2023-05-05T19:38:19.869Z,89.35
2023-05-05T19:40:51.397Z,89.51
2023-05-05T19:43:26.063Z,89.97
2023-05-05T19:45:55.953Z,90.04
2023-05-05T19:48:25.245Z,90.30
2023-05-05T19:50:53.721Z,90.75
2023-05-05T19:53:22.370Z,91.22
2023-05-05T19:55:51.493Z,91.44
2023-05-05T19:58:20.135Z,92.17
2023-05-05T20:00:51.544Z,92.01
2023-05-05T20:03:23.088Z,91.73
2023-05-05T20:05:51.709Z,91.80
2023-05-05T20:08:20.256Z,92.10
2023-05-05T20:10:50.506Z,92.18
2023-05-05T20:13:19.196Z,92.31
2023-05-05T20:15:50.958Z,92.37
2023-05-05T20:18:19.371Z,92.38
2023-05-05T20:20:55.066Z,93.09
2023-05-05T20:23:32.459Z,93.46
2023-05-05T20:26:01.831Z,93.76
2023-05-05T20:28:34.540Z,94.03
2023-05-05T20:31:03.019Z,94.18
2023-05-05T20:33:31.127Z,94.32
2023-05-05T20:36:02.024Z,94.76
2023-05-05T20:38:31.973Z,94.86
2023-05-05T20:41:00.129Z,95.16
2023-05-05T20:43:28.379Z,95.20
2023-05-05T20:45:56.734Z,95.37
2023-05-05T20:48:24.778Z,95.63
2023-05-05T20:50:52.807Z,95.92
2023-05-05T20:53:21.373Z,96.22
2023-05-05T20:55:50.551Z,96.53
2023-05-05T20:58:21.200Z,96.94
2023-05-05T21:00:49.620Z,96.93
2023-05-05T21:03:17.718Z,97.24
2023-05-05T21:05:48.585Z,97.27
2023-05-05T21:08:18.949Z,97.47
2023-05-05T21:10:46.729Z,97.51
2023-05-05T21:13:16.436Z,97.71
2023-05-05T21:15:44.557Z,97.81
2023-05-05T21:18:12.666Z,98.14
2023-05-05T21:20:41.454Z,98.41
2023-05-05T21:23:09.510Z,98.15
2023-05-05T21:25:37.518Z,98.35
2023-05-05T21:28:05.608Z,98.59
2023-05-05T21:30:33.567Z,98.46
2023-05-05T21:33:01.728Z,98.83
2023-05-05T21:35:29.742Z,98.77
2023-05-05T21:37:57.711Z,98.98
2023-05-05T21:40:26.371Z,98.75
2023-05-05T21:42:54.488Z,98.92
2023-05-05T21:45:22.576Z,99.09
2023-05-05T21:47:50.889Z,98.88
2023-05-05T21:50:19.018Z,98.82
2023-05-05T21:52:47.395Z,99.09
2023-05-05T21:55:15.570Z,99.23
2023-05-05T21:57:46.117Z,99.22
2023-05-05T22:00:16.885Z,99.25
2023-05-05T22:02:45.983Z,99.32
2023-05-05T22:05:14.190Z,99.27
2023-05-05T22:07:42.376Z,99.66
2023-05-05T22:10:10.863Z,99.55
2023-05-05T22:12:39.054Z,99.58
2023-05-05T22:15:07.960Z,99.69
2023-05-05T22:17:36.548Z,99.63
2023-05-05T22:20:05.756Z,99.74
2023-05-05T22:22:33.967Z,99.76
2023-05-05T22:25:01.935Z,99.78
2023-05-05T22:27:31.063Z,99.80
2023-05-05T22:29:59.471Z,99.94
2023-05-05T22:32:27.412Z,99.82
2023-05-05T22:34:55.506Z,99.84
2023-05-05T22:37:25.711Z,99.98
2023-05-05T22:39:59.787Z,99.99
2023-05-05T22:42:27.767Z,99.99
2023-05-05T22:44:55.815Z,99.99
2023-05-05T22:47:23.868Z,99.99
2023-05-05T22:49:52.038Z,99.99
2023-05-05T22:52:22.300Z,99.99
2023-05-05T22:54:50.389Z,99.99
2023-05-05T22:57:18.435Z,99.99
2023-05-05T22:59:46.429Z,99.99
2023-05-05T23:02:14.525Z,99.99
2023-05-05T23:04:44.864Z,99.99
2023-05-05T23:07:13.643Z,99.99
2023-05-05T23:09:41.881Z,99.99
2023-05-05T23:12:09.957Z,99.99
2023-05-05T23:14:38.917Z,99.99
2023-05-05T23:17:06.908Z,99.99
2023-05-05T23:19:35.134Z,99.99
2023-05-05T23:22:04.122Z,99.99
2023-05-05T23:24:32.202Z,99.99
2023-05-05T23:27:04.047Z,99.99
2023-05-05T23:29:33.302Z,99.99
2023-05-05T23:32:01.266Z,99.99
2023-05-05T23:34:29.337Z,99.99
2023-05-05T23:36:57.314Z,99.99
2023-05-05T23:39:25.382Z,99.99
2023-05-05T23:41:53.451Z,99.99
2023-05-05T23:44:24.794Z,99.99
2023-05-05T23:46:52.884Z,99.99
2023-05-05T23:49:20.961Z,99.99
2023-05-05T23:51:49.037Z,99.99
2023-05-05T23:54:16.996Z,99.99
2023-05-05T23:56:47.826Z,99.99
2023-05-05T23:59:15.888Z,99.99
